Enter the Airport ICAO Code

Search by Airport or City

Current Weather

KSEA | Seattle–Tacoma International Airport

Seattle, Washington, United States

Last Update 25 Minutes Ago

Mostly Cloudy Sky

Temperature of 12 ºC

Light to Moderate Winds from North

Temperature

12 ºC

Dew Point Temperature

09 ºC

Relative Humidity

81.94 %

Wind Direction

North (010º, Without Significant Variations)

Wind Velocity

13 km/h (07 kt)

Gusts

None

Visibility

Greater than 10 Miles

Sea Level Pressure

30.11 inHg (Inches of Mercury)

Layers of Clouds

5% to 30% of Sky Covered from 3962 mts (13000 ft) Above Ground Level.

60% to 90% of Sky Covered from 7315 mts (24000 ft) Above Ground Level.

METAR KSEA 191253Z 01007KT 10SM FEW130 BKN240 12/09 A3011 RMK AO2 SLP201 T01220089

Weather Forecast

KSEA | Seattle–Tacoma International Airport

Seattle, Washington, United States

Forecast valid for the next 29 Hours

From now on it is expected:

Partly Cloudy Sky

Light Winds from NorthEast

In 5 hours it is expected the begining of:

Light to Moderate Winds from West

In 9 hours it is expected the begining of:

Mostly Cloudy Sky

Light to Moderate Winds from NorthWest

In 17 hours it is expected the begining of:

Light Winds from North

Maximum Temperature

No Data

Minimum Temperature

No Data

TAF KSEA 191123Z 1912/2018 36008KT P6SM FEW250 FM191300 05004KT P6SM SCT200 FM191800 26006KT P6SM SCT200 FM192200 30008KT P6SM BKN250 FM200600 02004KT P6SM BKN250